Terminal Aerodrome Forecast
Issued by NWS

Home | Current Version | Previous Version | Graphics & Text | Print | Product List | Glossary On
Versions: 1 2 3 4 5 6 7 8 9 10 11 12 13 14 15 16 17 18 19 20
423
FTUS43 KGRB 260520
TAFCWA
TAF
KCWA 260520Z 2606/2706 23007KT P6SM BKN050
     FM261000 21007KT P6SM OVC020
     FM261400 22008KT P6SM VCSH OVC020
     FM262100 24012KT P6SM BKN030
     FM270100 26005KT P6SM SCT030 BKN050=

USA.gov is the U.S. government's official web portal to all federal, state and local government web resources and services.